createdAt,value
2022-10-20T00:03:11.744Z,2.83
2022-10-20T00:07:13.635Z,2.50
2022-10-20T00:11:19.952Z,2.37
2022-10-20T00:15:26.625Z,2.00
2022-10-20T00:19:56.468Z,1.93
2022-10-20T00:24:02.371Z,2.00
2022-10-20T00:28:04.623Z,1.90
2022-10-20T00:32:06.510Z,2.73
2022-10-20T00:36:12.847Z,2.53
2022-10-20T00:40:14.868Z,2.43
2022-10-20T00:44:51.442Z,2.30
2022-10-20T00:49:23.235Z,2.57
2022-10-20T00:53:53.592Z,2.93
2022-10-20T00:57:57.490Z,2.53
2022-10-20T01:02:01.585Z,2.77
2022-10-20T01:06:04.155Z,3.60
2022-10-20T01:10:07.132Z,3.87
2022-10-20T01:15:04.077Z,4.00
2022-10-20T01:19:24.840Z,4.03
2022-10-20T01:24:04.169Z,4.10
2022-10-20T01:28:51.425Z,2.80
2022-10-20T01:32:59.012Z,4.30
2022-10-20T01:37:28.240Z,3.60
2022-10-20T01:41:43.927Z,3.60
2022-10-20T01:45:55.787Z,3.17
2022-10-20T01:49:58.216Z,3.93
2022-10-20T01:54:00.337Z,3.33
2022-10-20T01:58:23.833Z,3.33
2022-10-20T02:02:50.057Z,3.30
2022-10-20T02:07:40.741Z,3.60
2022-10-20T02:12:21.434Z,5.00
2022-10-20T02:16:54.575Z,4.77
2022-10-20T02:21:00.590Z,4.80
2022-10-20T02:25:04.243Z,4.93
2022-10-20T02:29:18.094Z,5.63
2022-10-20T02:34:16.269Z,5.43
2022-10-20T02:38:21.868Z,5.70
2022-10-20T02:42:31.077Z,5.20
2022-10-20T02:46:34.232Z,6.40
2022-10-20T02:50:37.188Z,5.80
2022-10-20T02:54:39.117Z,5.90
2022-10-20T02:58:40.991Z,5.63
2022-10-20T03:02:42.864Z,5.83
2022-10-20T03:06:44.928Z,4.50
2022-10-20T03:10:46.839Z,6.83
2022-10-20T03:14:49.892Z,6.27
2022-10-20T03:18:51.789Z,6.40
2022-10-20T03:23:20.201Z,6.60
2022-10-20T03:28:24.951Z,6.70
2022-10-20T03:32:36.142Z,5.93
2022-10-20T03:36:38.399Z,7.27
2022-10-20T03:40:46.031Z,7.53
2022-10-20T03:44:52.601Z,7.47
2022-10-20T03:48:54.991Z,7.63
2022-10-20T03:53:26.670Z,6.80
2022-10-20T03:57:28.557Z,6.90
2022-10-20T04:02:36.822Z,7.60
2022-10-20T04:06:39.197Z,7.40
2022-10-20T04:11:07.817Z,8.17
2022-10-20T04:16:01.012Z,7.23
2022-10-20T04:20:07.737Z,7.50
2022-10-20T04:24:11.706Z,6.63
2022-10-20T04:28:15.176Z,6.83
2022-10-20T04:38:10.412Z,7.47
2022-10-20T04:42:12.294Z,6.77
2022-10-20T04:46:14.287Z,6.50
2022-10-20T04:50:16.317Z,6.67
2022-10-20T04:54:42.486Z,6.97
2022-10-20T04:58:50.206Z,7.53
2022-10-20T05:03:00.643Z,7.03
2022-10-20T05:07:02.875Z,7.53
2022-10-20T05:11:05.183Z,6.17
2022-10-20T05:15:07.615Z,7.87
2022-10-20T05:19:10.102Z,6.13
2022-10-20T05:23:12.090Z,5.93
2022-10-20T05:27:13.946Z,7.13
2022-10-20T05:31:17.898Z,6.03
2022-10-20T05:35:39.728Z,7.87
2022-10-20T05:45:16.914Z,7.17
2022-10-20T05:49:18.843Z,6.50
2022-10-20T05:53:20.927Z,6.97
2022-10-20T05:57:38.227Z,7.43
2022-10-20T06:01:48.376Z,6.93
2022-10-20T06:05:58.159Z,7.63
2022-10-20T06:10:25.320Z,7.83
2022-10-20T06:14:36.635Z,7.63
2022-10-20T06:18:38.958Z,7.07
2022-10-20T06:22:40.838Z,6.53
2022-10-20T06:26:44.231Z,7.33
2022-10-20T06:30:46.179Z,7.30
2022-10-20T06:34:51.513Z,7.53
2022-10-20T06:38:59.084Z,7.23
2022-10-20T06:43:06.668Z,7.80
2022-10-20T06:47:10.382Z,7.07
2022-10-20T06:51:24.698Z,7.63
2022-10-20T06:55:26.613Z,7.67
2022-10-20T06:59:28.766Z,8.20
2022-10-20T07:03:48.124Z,7.83
2022-10-20T07:07:54.459Z,7.93
2022-10-20T07:11:56.500Z,7.27
2022-10-20T07:15:59.413Z,6.73
2022-10-20T07:20:01.304Z,8.10
2022-10-20T07:24:09.703Z,8.40
2022-10-20T07:28:11.640Z,7.37
2022-10-20T07:33:23.957Z,7.23
2022-10-20T07:37:53.145Z,7.63
2022-10-20T07:41:55.160Z,7.23
2022-10-20T07:45:57.257Z,7.40
2022-10-20T07:49:59.158Z,7.03
2022-10-20T07:54:04.814Z,7.23
2022-10-20T08:04:13.425Z,6.83
2022-10-20T08:08:15.364Z,7.00
2022-10-20T08:12:17.266Z,7.17
2022-10-20T08:16:22.604Z,6.63
2022-10-20T08:20:27.393Z,6.57
2022-10-20T08:24:31.680Z,6.60
2022-10-20T08:28:36.265Z,6.17
2022-10-20T08:32:38.609Z,5.93
2022-10-20T08:36:40.647Z,5.77
2022-10-20T08:42:02.483Z,5.47
2022-10-20T08:46:01.491Z,5.80
2022-10-20T08:50:06.446Z,6.40
2022-10-20T08:54:14.352Z,4.70
2022-10-20T08:58:25.454Z,5.93
2022-10-20T09:02:52.145Z,5.30
2022-10-20T09:07:21.873Z,4.93
2022-10-20T09:11:31.613Z,4.47
2022-10-20T09:15:54.116Z,4.70
2022-10-20T09:20:24.322Z,4.13
2022-10-20T09:24:31.942Z,4.70
2022-10-20T09:29:16.039Z,4.57
2022-10-20T09:33:54.047Z,4.83
2022-10-20T09:38:22.671Z,4.60
2022-10-20T09:42:55.844Z,4.13
2022-10-20T09:47:24.078Z,4.13
2022-10-20T09:51:29.626Z,4.03
2022-10-20T09:56:03.096Z,4.60
2022-10-20T10:00:38.310Z,4.90
2022-10-20T10:04:46.714Z,4.83
2022-10-20T10:15:33.781Z,5.67
2022-10-20T10:19:36.021Z,5.53
2022-10-20T10:23:51.979Z,6.30
2022-10-20T10:28:06.945Z,5.10
2022-10-20T10:32:30.591Z,5.17
2022-10-20T10:36:36.808Z,5.80
2022-10-20T10:41:21.329Z,6.33
2022-10-20T10:46:16.099Z,6.63
2022-10-20T10:50:36.306Z,6.50
2022-10-20T10:54:59.706Z,6.23
2022-10-20T10:59:29.521Z,5.57
2022-10-20T11:04:02.281Z,6.03
2022-10-20T11:08:19.235Z,5.80
2022-10-20T11:12:57.331Z,5.43
2022-10-20T11:18:06.180Z,4.43
2022-10-20T11:22:44.034Z,4.97
2022-10-20T11:27:03.980Z,5.13
2022-10-20T11:31:06.152Z,5.80
2022-10-20T11:35:16.574Z,5.60
2022-10-20T11:39:32.618Z,6.10
2022-10-20T11:43:40.728Z,6.10
2022-10-20T11:48:10.386Z,6.13
2022-10-20T11:53:04.132Z,7.57
2022-10-20T11:57:11.276Z,8.10
2022-10-20T12:01:19.257Z,7.93
2022-10-20T12:05:24.007Z,8.57
2022-10-20T12:10:01.539Z,8.40
2022-10-20T12:14:17.069Z,8.07
2022-10-20T12:19:13.240Z,8.23
2022-10-20T12:24:19.500Z,9.20
2022-10-20T12:29:21.359Z,8.90
2022-10-20T12:33:54.140Z,8.57
2022-10-20T12:37:58.886Z,7.93
2022-10-20T12:42:05.377Z,8.70
2022-10-20T12:46:12.062Z,7.37
2022-10-20T12:50:45.611Z,8.30
2022-10-20T12:55:13.764Z,7.73
2022-10-20T12:59:46.670Z,8.87
2022-10-20T13:03:54.777Z,8.23
2022-10-20T13:19:43.508Z,7.10
2022-10-20T13:24:08.916Z,8.07
2022-10-20T13:28:14.059Z,7.77
2022-10-20T13:38:35.079Z,6.93
2022-10-20T13:42:59.775Z,7.43
2022-10-20T13:47:49.147Z,6.87
2022-10-20T13:51:55.845Z,6.60
2022-10-20T13:56:16.158Z,6.90
2022-10-20T14:00:30.836Z,5.80
2022-10-20T14:05:07.276Z,6.40
2022-10-20T14:09:24.345Z,6.37
2022-10-20T14:13:51.700Z,5.90
2022-10-20T14:18:52.915Z,6.80
2022-10-20T14:22:57.901Z,6.90
2022-10-20T14:27:12.514Z,6.00
2022-10-20T14:31:24.156Z,5.00
2022-10-20T14:36:11.261Z,6.03
2022-10-20T14:40:26.310Z,5.63
2022-10-20T14:44:33.392Z,6.63
2022-10-20T14:48:49.443Z,5.80
2022-10-20T14:52:58.170Z,6.17
2022-10-20T14:57:27.946Z,6.17
2022-10-20T15:01:37.456Z,6.37
2022-10-20T15:06:13.764Z,6.20
2022-10-20T15:10:42.213Z,5.77
2022-10-20T15:14:48.062Z,6.07
2022-10-20T15:19:09.944Z,5.90
2022-10-20T15:24:11.323Z,7.00
2022-10-20T15:28:19.178Z,5.97
2022-10-20T15:32:29.327Z,6.50
2022-10-20T15:36:34.015Z,6.87
2022-10-20T15:40:52.643Z,6.37
2022-10-20T15:44:54.564Z,6.50
2022-10-20T15:48:56.607Z,6.37
2022-10-20T15:52:58.504Z,7.37
2022-10-20T15:57:01.561Z,7.20
2022-10-20T16:01:05.322Z,6.83
2022-10-20T16:05:10.850Z,6.80
2022-10-20T16:09:16.649Z,6.53
2022-10-20T16:13:21.237Z,6.63
2022-10-20T16:17:23.223Z,7.50
2022-10-20T16:21:35.628Z,6.53
2022-10-20T16:25:40.740Z,6.17
2022-10-20T16:29:46.298Z,6.47
2022-10-20T16:33:51.122Z,6.40
2022-10-20T16:37:52.935Z,6.30
2022-10-20T16:41:54.937Z,6.40
2022-10-20T16:45:57.218Z,6.67
2022-10-20T16:50:23.988Z,6.27
2022-10-20T16:54:34.234Z,6.30
2022-10-20T16:58:37.514Z,6.20
2022-10-20T17:02:43.024Z,5.87
2022-10-20T17:06:44.992Z,5.77
2022-10-20T17:10:47.911Z,6.53
2022-10-20T17:14:53.523Z,5.70
2022-10-20T17:18:56.649Z,6.03
2022-10-20T17:23:00.665Z,6.20
2022-10-20T17:27:02.935Z,6.23
2022-10-20T17:31:09.807Z,6.50
2022-10-20T17:35:12.661Z,6.20
2022-10-20T17:39:22.082Z,6.33
2022-10-20T17:43:35.696Z,5.87
2022-10-20T17:47:43.449Z,5.60
2022-10-20T17:51:48.065Z,5.23
2022-10-20T17:55:49.958Z,5.77
2022-10-20T17:59:53.346Z,5.00
2022-10-20T18:03:58.018Z,5.37
2022-10-20T18:08:00.516Z,6.13
2022-10-20T18:13:01.209Z,5.90
2022-10-20T18:17:04.724Z,6.80
2022-10-20T18:25:56.548Z,6.20
2022-10-20T18:30:02.722Z,5.63
2022-10-20T18:34:12.000Z,6.43
2022-10-20T18:38:14.105Z,6.73
2022-10-20T18:43:08.057Z,7.10
2022-10-20T18:47:11.026Z,6.33
2022-10-20T18:51:20.474Z,7.33
2022-10-20T18:56:03.212Z,5.57
2022-10-20T19:00:19.959Z,5.73
2022-10-20T19:04:25.463Z,7.30
2022-10-20T19:08:29.860Z,5.73
2022-10-20T19:12:36.843Z,5.87
2022-10-20T19:16:41.310Z,7.30
2022-10-20T19:21:09.608Z,7.43
2022-10-20T19:25:37.430Z,7.43
2022-10-20T19:30:02.061Z,7.70
2022-10-20T19:34:16.117Z,6.80
2022-10-20T19:38:20.754Z,7.80
2022-10-20T19:42:22.963Z,8.40
2022-10-20T19:46:25.187Z,8.13
2022-10-20T19:50:27.465Z,8.83
2022-10-20T19:54:40.304Z,9.20
2022-10-20T19:58:46.605Z,8.00
2022-10-20T20:02:59.308Z,9.30
2022-10-20T20:07:02.549Z,9.77
2022-10-20T20:11:05.953Z,9.07
2022-10-20T20:15:08.089Z,8.83
2022-10-20T20:19:10.237Z,10.67
2022-10-20T20:23:12.551Z,10.40
2022-10-20T20:27:21.610Z,11.33
2022-10-20T20:31:29.027Z,10.10
2022-10-20T20:35:39.386Z,10.77
2022-10-20T20:40:10.326Z,12.13
2022-10-20T20:48:44.047Z,10.10
2022-10-20T20:52:57.660Z,10.80
2022-10-20T20:57:17.366Z,9.57
2022-10-20T21:01:44.521Z,8.47
2022-10-20T21:06:33.115Z,9.93
2022-10-20T21:11:18.323Z,8.10
2022-10-20T21:15:24.485Z,9.77
2022-10-20T21:19:26.504Z,11.07
2022-10-20T21:23:28.417Z,11.60
2022-10-20T21:27:30.399Z,10.03
2022-10-20T21:32:24.265Z,8.27
2022-10-20T21:36:51.446Z,11.43
2022-10-20T21:40:53.353Z,10.03
2022-10-20T21:44:55.289Z,9.07
2022-10-20T21:49:19.624Z,10.27
2022-10-20T21:54:11.925Z,11.90
2022-10-20T21:58:14.163Z,9.53
2022-10-20T22:02:16.355Z,12.50
2022-10-20T22:06:19.885Z,11.90
2022-10-20T22:10:28.911Z,12.53
2022-10-20T22:14:34.769Z,12.77
2022-10-20T22:18:36.815Z,12.90
2022-10-20T22:23:55.079Z,12.70
2022-10-20T22:28:24.197Z,14.40
2022-10-20T22:32:27.505Z,14.60
2022-10-20T22:36:29.733Z,13.50
2022-10-20T22:40:31.695Z,12.43
2022-10-20T22:44:35.642Z,13.90
2022-10-20T22:49:45.487Z,14.00
2022-10-20T22:53:47.430Z,15.23
2022-10-20T22:57:50.384Z,14.40
2022-10-20T23:01:52.526Z,17.30
2022-10-20T23:05:54.440Z,20.87
2022-10-20T23:09:58.552Z,15.77
2022-10-20T23:14:06.813Z,22.70
2022-10-20T23:18:11.277Z,15.10
2022-10-20T23:22:40.289Z,17.70
2022-10-20T23:26:42.750Z,20.23
2022-10-20T23:30:51.271Z,21.00
2022-10-20T23:34:53.191Z,22.03
2022-10-20T23:38:55.127Z,22.63
2022-10-20T23:43:05.774Z,30.17
2022-10-20T23:47:07.735Z,22.50
2022-10-20T23:51:09.857Z,23.70
2022-10-20T23:55:30.643Z,24.67
2022-10-20T23:59:32.578Z,28.33
